createdAt,value
2022-10-30T00:03:27.462Z,3.19
2022-10-30T00:08:51.873Z,3.25
2022-10-30T00:14:18.499Z,3.27
2022-10-30T00:19:47.009Z,3.52
2022-10-30T00:25:14.970Z,2.93
2022-10-30T00:30:42.500Z,2.75
2022-10-30T00:36:08.709Z,2.74
2022-10-30T00:41:36.814Z,2.93
2022-10-30T00:47:04.739Z,2.80
2022-10-30T00:52:32.891Z,2.75
2022-10-30T00:57:58.317Z,2.79
2022-10-30T01:03:25.956Z,2.85
2022-10-30T01:08:50.090Z,2.83
2022-10-30T01:14:17.532Z,2.91
2022-10-30T01:19:39.512Z,2.82
2022-10-30T01:25:02.306Z,3.14
2022-10-30T01:30:30.807Z,2.59
2022-10-30T01:36:02.895Z,2.91
2022-10-30T01:41:29.969Z,2.41
2022-10-30T01:46:56.639Z,2.93
2022-10-30T01:52:36.741Z,2.68
2022-10-30T01:58:00.544Z,2.66
2022-10-30T02:03:27.577Z,2.51
2022-10-30T02:08:53.989Z,2.89
2022-10-30T02:14:17.905Z,2.86
2022-10-30T02:19:44.741Z,2.56
2022-10-30T02:25:12.559Z,3.10
2022-10-30T02:30:39.020Z,3.24
2022-10-30T02:36:05.474Z,3.34
2022-10-30T02:41:33.558Z,3.48
2022-10-30T02:47:01.498Z,2.98
2022-10-30T02:52:27.796Z,3.84
2022-10-30T02:57:54.453Z,3.35
2022-10-30T03:03:23.939Z,3.86
2022-10-30T03:08:47.531Z,3.50
2022-10-30T03:14:15.232Z,3.48
2022-10-30T03:19:41.607Z,3.11
2022-10-30T03:25:07.959Z,3.37
2022-10-30T03:30:34.763Z,3.12
2022-10-30T03:36:01.040Z,3.32
2022-10-30T03:41:27.036Z,3.24
2022-10-30T03:46:52.087Z,3.81
2022-10-30T03:52:13.682Z,3.01
2022-10-30T03:57:38.768Z,2.66
2022-10-30T04:03:06.860Z,3.27
2022-10-30T04:08:33.172Z,3.81
2022-10-30T04:13:57.235Z,3.13
2022-10-30T04:19:25.096Z,3.37
2022-10-30T04:24:49.247Z,3.39
2022-10-30T04:30:10.648Z,3.29
2022-10-30T04:35:39.059Z,3.19
2022-10-30T04:41:05.983Z,3.74
2022-10-30T04:46:33.645Z,3.08
2022-10-30T04:51:59.882Z,3.09
2022-10-30T04:57:30.018Z,2.93
2022-10-30T05:02:54.495Z,3.21
2022-10-30T05:08:23.316Z,3.25
2022-10-30T05:13:47.550Z,3.72
2022-10-30T05:19:11.277Z,3.37
2022-10-30T05:24:35.283Z,3.55
2022-10-30T05:30:00.480Z,2.79
2022-10-30T05:35:30.913Z,3.34
2022-10-30T05:40:57.542Z,2.76
2022-10-30T05:46:22.016Z,2.70
2022-10-30T05:51:48.075Z,3.36
2022-10-30T05:57:09.299Z,3.16
2022-10-30T06:02:35.051Z,2.90
2022-10-30T06:08:01.228Z,2.70
2022-10-30T06:13:26.848Z,3.30
2022-10-30T06:18:50.502Z,2.55
2022-10-30T06:24:17.878Z,2.89
2022-10-30T06:29:45.356Z,3.27
2022-10-30T06:35:10.813Z,2.81
2022-10-30T06:40:36.248Z,2.96
2022-10-30T06:46:00.132Z,3.09
2022-10-30T06:51:24.015Z,3.04
2022-10-30T06:56:49.750Z,3.13
2022-10-30T07:02:17.900Z,3.43
2022-10-30T07:07:44.685Z,3.60
2022-10-30T07:13:10.030Z,3.38
2022-10-30T07:18:35.260Z,3.55
2022-10-30T07:23:59.057Z,3.38
2022-10-30T07:29:26.287Z,3.57
2022-10-30T07:34:53.117Z,3.36
2022-10-30T07:40:17.691Z,3.56
2022-10-30T07:45:47.038Z,3.33
2022-10-30T07:51:13.048Z,4.03
2022-10-30T07:56:37.226Z,3.38
2022-10-30T08:02:03.433Z,4.06
2022-10-30T08:07:27.005Z,4.04
2022-10-30T08:12:53.442Z,4.84
2022-10-30T08:18:19.129Z,4.22
2022-10-30T08:23:44.280Z,3.99
2022-10-30T08:29:10.674Z,4.20
2022-10-30T08:34:39.106Z,4.38
2022-10-30T08:40:05.243Z,4.35
2022-10-30T08:45:34.594Z,4.72
2022-10-30T08:51:02.560Z,5.13
2022-10-30T08:56:28.617Z,4.83
2022-10-30T09:01:56.137Z,4.81
2022-10-30T09:07:21.558Z,4.11
2022-10-30T09:12:51.639Z,4.24
2022-10-30T09:18:13.863Z,3.82
2022-10-30T09:23:40.099Z,3.94
2022-10-30T09:29:09.785Z,3.73
2022-10-30T09:34:35.475Z,3.40
2022-10-30T09:40:00.346Z,3.79
2022-10-30T09:45:33.093Z,3.38
2022-10-30T09:51:27.821Z,3.34
2022-10-30T09:57:13.828Z,3.88
2022-10-30T10:02:41.769Z,3.00
2022-10-30T10:08:10.728Z,3.21
2022-10-30T10:13:38.693Z,3.41
2022-10-30T10:19:06.593Z,3.16
2022-10-30T10:24:30.567Z,2.52
2022-10-30T10:29:52.458Z,2.77
2022-10-30T10:35:16.133Z,3.43
2022-10-30T10:40:49.663Z,2.77
2022-10-30T10:46:18.119Z,2.82
2022-10-30T10:51:54.907Z,4.10
2022-10-30T10:57:22.467Z,3.28
2022-10-30T11:02:50.298Z,2.92
2022-10-30T11:08:18.368Z,4.61
2022-10-30T11:13:42.786Z,3.06
2022-10-30T11:19:05.403Z,2.69
2022-10-30T11:24:27.706Z,2.87
2022-10-30T11:29:53.332Z,2.31
2022-10-30T11:35:18.634Z,2.32
2022-10-30T11:40:44.698Z,2.49
2022-10-30T11:46:11.761Z,2.65
2022-10-30T11:51:41.187Z,2.14
2022-10-30T11:57:08.401Z,1.82
2022-10-30T12:02:45.092Z,2.12
2022-10-30T12:08:10.559Z,1.68
2022-10-30T12:13:37.427Z,1.84
2022-10-30T12:19:01.059Z,2.06
2022-10-30T12:24:25.275Z,2.01
2022-10-30T12:30:07.278Z,2.21
2022-10-30T12:35:19.449Z,2.45
2022-10-30T12:41:01.054Z,2.08
2022-10-30T12:46:28.543Z,2.20
2022-10-30T12:51:53.255Z,2.22
2022-10-30T12:57:19.721Z,2.06
2022-10-30T13:02:43.170Z,2.02
2022-10-30T13:08:11.603Z,1.94
2022-10-30T13:13:37.269Z,2.29
2022-10-30T13:19:02.482Z,1.63
2022-10-30T13:24:31.309Z,1.79
2022-10-30T13:29:59.168Z,1.58
2022-10-30T13:35:30.150Z,1.62
2022-10-30T13:40:56.586Z,1.80
2022-10-30T13:46:24.238Z,2.21
2022-10-30T13:51:48.756Z,2.07
2022-10-30T13:57:15.226Z,1.57
2022-10-30T14:02:41.040Z,1.56
2022-10-30T14:08:16.845Z,2.11
2022-10-30T14:13:47.184Z,1.63
2022-10-30T14:19:14.624Z,1.66
2022-10-30T14:24:36.576Z,2.03
2022-10-30T14:30:03.799Z,1.74
2022-10-30T14:35:39.102Z,1.47
2022-10-30T14:41:09.724Z,1.62
2022-10-30T14:46:57.727Z,1.75
2022-10-30T14:52:30.972Z,2.01
2022-10-30T14:57:56.642Z,1.72
2022-10-30T15:03:40.648Z,1.82
2022-10-30T15:09:09.393Z,1.78
2022-10-30T15:14:52.482Z,2.17
2022-10-30T15:20:04.697Z,1.89
2022-10-30T15:25:30.240Z,2.05
2022-10-30T15:30:55.275Z,2.17
2022-10-30T15:36:21.998Z,1.76
2022-10-30T15:41:44.009Z,1.60
2022-10-30T15:47:10.548Z,1.89
2022-10-30T15:52:35.236Z,2.84
2022-10-30T15:58:03.917Z,2.12
2022-10-30T16:03:29.436Z,2.47
2022-10-30T16:08:57.183Z,2.04
2022-10-30T16:14:24.453Z,2.37
2022-10-30T16:19:51.775Z,2.64
2022-10-30T16:25:17.750Z,2.59
2022-10-30T16:30:44.413Z,2.55
2022-10-30T16:36:07.455Z,2.23
2022-10-30T16:41:29.500Z,2.31
2022-10-30T16:46:51.116Z,2.37
2022-10-30T16:52:18.027Z,2.91
2022-10-30T16:57:42.975Z,2.10
2022-10-30T17:03:05.027Z,2.42
2022-10-30T17:08:28.292Z,2.50
2022-10-30T17:13:59.380Z,2.36
2022-10-30T17:19:29.345Z,4.51
2022-10-30T17:25:02.007Z,4.33
2022-10-30T17:30:36.695Z,4.63
2022-10-30T17:36:04.145Z,4.74
2022-10-30T17:41:30.659Z,3.64
2022-10-30T17:46:51.963Z,3.32
2022-10-30T17:52:32.472Z,3.20
2022-10-30T17:57:56.733Z,2.63
2022-10-30T18:03:19.924Z,2.38
2022-10-30T18:08:49.604Z,2.13
2022-10-30T18:14:10.501Z,2.24
2022-10-30T18:19:31.907Z,2.55
2022-10-30T18:24:58.119Z,2.08
2022-10-30T18:30:25.169Z,2.07
2022-10-30T18:35:47.960Z,1.83
2022-10-30T18:41:17.983Z,2.28
2022-10-30T18:46:43.720Z,2.04
2022-10-30T18:52:10.447Z,2.07
2022-10-30T18:57:39.686Z,2.02
2022-10-30T19:03:03.706Z,1.99
2022-10-30T19:08:30.974Z,2.13
2022-10-30T19:13:54.772Z,2.40
2022-10-30T19:19:16.676Z,2.39
2022-10-30T19:24:37.872Z,2.34
2022-10-30T19:29:59.165Z,2.37
2022-10-30T19:35:23.729Z,2.45
2022-10-30T19:40:45.167Z,2.88
2022-10-30T19:46:06.593Z,2.39
2022-10-30T19:51:32.779Z,3.12
2022-10-30T19:56:58.591Z,2.55
2022-10-30T20:02:23.461Z,2.69
2022-10-30T20:07:50.859Z,2.61
2022-10-30T20:13:21.615Z,2.19
2022-10-30T20:18:44.181Z,2.42
2022-10-30T20:24:06.974Z,2.66
2022-10-30T20:29:31.252Z,2.50
2022-10-30T20:34:58.192Z,2.51
2022-10-30T20:40:22.871Z,2.94
2022-10-30T20:45:48.829Z,2.92
2022-10-30T20:51:14.393Z,3.04
2022-10-30T20:56:45.734Z,3.17
2022-10-30T21:02:10.551Z,2.80
2022-10-30T21:07:37.601Z,2.83
2022-10-30T21:13:05.352Z,3.02
2022-10-30T21:18:29.564Z,2.86
2022-10-30T21:23:55.531Z,3.53
2022-10-30T21:29:22.384Z,2.49
2022-10-30T21:34:46.122Z,2.59
2022-10-30T21:40:07.200Z,2.81
2022-10-30T21:45:30.428Z,2.45
2022-10-30T21:50:54.521Z,2.42
2022-10-30T21:56:27.144Z,2.25
2022-10-30T22:01:52.677Z,2.44
2022-10-30T22:07:16.278Z,2.88
2022-10-30T22:12:42.585Z,2.58
2022-10-30T22:18:10.391Z,2.88
2022-10-30T22:23:35.098Z,2.93
2022-10-30T22:29:00.807Z,2.44
2022-10-30T22:34:22.287Z,2.54
2022-10-30T22:39:49.070Z,2.63
2022-10-30T22:45:16.107Z,2.97
2022-10-30T22:50:42.405Z,2.74
2022-10-30T22:56:07.261Z,2.51
2022-10-30T23:01:31.498Z,3.15
2022-10-30T23:06:55.241Z,2.47
2022-10-30T23:12:19.470Z,2.63
2022-10-30T23:17:46.147Z,2.19
2022-10-30T23:23:10.539Z,2.37
2022-10-30T23:28:38.935Z,2.13
2022-10-30T23:34:04.777Z,2.09
2022-10-30T23:39:30.327Z,2.25
2022-10-30T23:44:55.969Z,2.32
2022-10-30T23:50:18.425Z,3.00
2022-10-30T23:55:45.974Z,2.59
